Time;durP1;ratioP1;P1;durP2;ratioP2;P2;SDS_P1;SDS_P2;PMS_P1;PMS_P2;Temp;Humidity;BMP_temperature;BMP_pressure;BME280_temperature;BME280_humidity;BME280_pressure;Samples;Min_cycle;Max_cycle;Signal;HPM_P1;HPM_P2
2022/10/08 00:01:14;;;;;;;3.57;3.37;;;;;;;12.34;99.54;95797.12;4315182;32;20291;-62
2022/10/08 00:03:43;;;;;;;4.40;4.03;;;;;;;12.39;99.25;95790.94;4284188;32;20197;-62
2022/10/08 00:06:22;;;;;;;5.47;4.97;;;;;;;12.46;99.12;95795.88;4296551;32;20261;-62
2022/10/08 00:08:56;;;;;;;3.83;3.63;;;;;;;12.44;98.99;95798.06;4323617;32;20196;-62
2022/10/08 00:11:28;;;;;;;3.53;3.23;;;;;;;12.45;98.55;95791.66;4323786;32;20194;-62
2022/10/08 00:13:56;;;;;;;3.93;3.70;;;;;;;12.31;99.48;95792.38;4319450;32;20204;-62
2022/10/08 00:16:25;;;;;;;4.20;3.90;;;;;;;12.29;99.60;95786.56;4296651;33;20251;-62
2022/10/08 00:19:04;;;;;;;3.63;3.43;;;;;;;12.30;99.53;95782.03;4331095;32;20264;-63
2022/10/08 00:21:35;;;;;;;4.07;3.77;;;;;;;12.37;99.20;95783.25;4320823;32;20182;-62
2022/10/08 00:24:03;;;;;;;3.60;3.40;;;;;;;12.26;99.59;95787.16;4322966;32;20177;-62
2022/10/08 00:26:40;;;;;;;3.70;3.47;;;;;;;12.29;99.90;95783.91;4294695;32;20208;-62
2022/10/08 00:29:12;;;;;;;3.23;3.13;;;;;;;12.43;99.43;95783.16;4313284;32;20201;-62
2022/10/08 00:31:43;;;;;;;3.20;3.00;;;;;;;12.45;98.91;95786.31;4312275;32;20215;-63
2022/10/08 00:34:17;;;;;;;3.63;3.33;;;;;;;12.51;98.43;95787.78;4290270;32;20268;-62
2022/10/08 00:36:44;;;;;;;3.53;3.33;;;;;;;12.47;98.28;95789.47;4324975;32;20178;-63
2022/10/08 00:39:18;;;;;;;8.57;3.37;;;;;;;12.44;98.32;95787.41;4322098;33;20225;-63
2022/10/08 00:41:48;;;;;;;3.50;3.37;;;;;;;12.47;98.44;95781.50;4304276;32;20222;-62
2022/10/08 00:44:43;;;;;;;4.93;4.53;;;;;;;12.41;98.83;95782.66;4305889;33;20237;-62
2022/10/08 00:47:20;;;;;;;3.47;3.33;;;;;;;12.27;99.00;95780.75;4292389;32;20194;-63
2022/10/08 00:49:50;;;;;;;3.07;2.73;;;;;;;12.24;99.29;95776.03;4290499;33;20219;-62
2022/10/08 00:52:18;;;;;;;3.33;3.13;;;;;;;12.22;99.65;95775.53;4323150;33;20205;-62
2022/10/08 00:54:44;;;;;;;3.40;3.20;;;;;;;12.42;99.09;95773.59;4299616;32;20252;-63
2022/10/08 00:57:10;;;;;;;3.50;3.27;;;;;;;12.39;99.45;95765.13;4327112;32;20193;-62
2022/10/08 00:59:36;;;;;;;3.80;3.53;;;;;;;12.47;98.67;95766.28;4341320;32;20228;-62
2022/10/08 01:02:03;;;;;;;3.43;3.13;;;;;;;12.31;98.75;95768.44;4345201;32;20189;-66
2022/10/08 01:04:31;;;;;;;2.80;2.70;;;;;;;12.35;98.82;95769.44;4302167;32;20220;-63
2022/10/08 01:07:20;;;;;;;3.13;3.03;;;;;;;12.43;98.64;95769.88;4344632;32;20209;-63
2022/10/08 01:10:42;;;;;;;2.50;2.40;;;;;;;12.33;98.52;95760.97;4356697;32;20259;-62
2022/10/08 01:13:42;;;;;;;3.97;3.67;;;;;;;12.31;98.47;95757.00;4322893;33;20200;-62
2022/10/08 01:16:27;;;;;;;3.53;3.23;;;;;;;12.36;97.80;95756.94;4315695;33;20247;-62
2022/10/08 01:19:12;;;;;;;2.90;2.77;;;;;;;12.38;97.83;95752.91;4327125;33;20196;-63
2022/10/08 01:22:26;;;;;;;2.70;2.60;;;;;;;12.31;97.93;95752.47;4313436;33;20194;-62
2022/10/08 01:27:51;;;;;;;3.67;3.30;;;;;;;12.31;97.49;95747.16;4283126;33;20369;-62
2022/10/08 01:30:33;;;;;;;2.20;2.10;;;;;;;12.24;98.10;95752.09;4307630;33;20215;-62
2022/10/08 01:33:22;;;;;;;2.90;2.70;;;;;;;12.14;98.20;95744.28;4295514;33;20190;-63
2022/10/08 01:35:56;;;;;;;2.23;2.13;;;;;;;12.17;98.02;95746.34;4292755;33;20182;-62
2022/10/08 01:38:28;;;;;;;1.73;1.73;;;;;;;12.12;98.24;95749.09;4332799;32;20280;-63
2022/10/08 01:40:59;;;;;;;2.77;2.60;;;;;;;12.14;98.47;95748.81;4311524;32;20204;-62
2022/10/08 01:43:27;;;;;;;2.67;2.57;;;;;;;12.23;98.20;95742.53;4323419;32;20290;-62
2022/10/08 01:46:10;;;;;;;2.10;2.00;;;;;;;12.24;97.96;95741.44;4318704;32;20360;-62
2022/10/08 01:48:40;;;;;;;2.13;2.03;;;;;;;12.25;97.99;95743.03;4327018;32;20238;-63
2022/10/08 01:51:16;;;;;;;2.53;2.43;;;;;;;12.41;97.60;95740.09;4360841;32;20200;-62
2022/10/08 01:53:46;;;;;;;2.67;2.57;;;;;;;12.42;97.64;95741.66;4334475;32;20193;-62
2022/10/08 01:56:20;;;;;;;2.40;2.30;;;;;;;12.32;97.72;95746.09;4358588;32;20208;-63
2022/10/08 01:59:41;;;;;;;2.37;2.27;;;;;;;12.41;97.80;95740.09;4368254;32;20213;-63
2022/10/08 02:02:16;;;;;;;2.20;2.10;;;;;;;12.41;97.81;95740.87;4347389;32;20238;-63
2022/10/08 02:04:43;;;;;;;3.03;2.87;;;;;;;12.49;97.53;95734.84;4319035;32;20180;-63
2022/10/08 02:07:19;;;;;;;2.10;2.00;;;;;;;12.50;97.61;95731.13;4336456;32;20193;-62
2022/10/08 02:10:33;;;;;;;2.93;2.83;;;;;;;12.43;97.86;95737.94;4314217;32;20228;-63
2022/10/08 02:12:58;;;;;;;2.30;2.20;;;;;;;12.45;97.99;95733.09;4308523;32;20212;-62
2022/10/08 02:15:46;;;;;;;1.90;1.80;;;;;;;12.38;98.43;95733.47;4340779;32;20190;-62
2022/10/08 02:18:26;;;;;;;1.77;1.77;;;;;;;12.57;97.94;95728.06;4324387;32;20198;-62
2022/10/08 02:21:13;;;;;;;2.03;1.93;;;;;;;12.53;98.09;95722.56;4325324;32;20236;-62
2022/10/08 02:24:10;;;;;;;1.43;1.40;;;;;;;12.54;98.32;95721.47;4282679;33;20193;-62
2022/10/08 02:26:48;;;;;;;2.30;2.20;;;;;;;12.54;98.53;95713.47;4322993;32;20193;-63
2022/10/08 02:29:22;;;;;;;3.03;2.83;;;;;;;12.55;98.31;95714.28;4331798;32;20198;-63
2022/10/08 02:31:57;;;;;;;2.40;2.30;;;;;;;12.52;98.80;95712.19;4342460;32;20264;-62
2022/10/08 02:34:28;;;;;;;1.93;1.83;;;;;;;12.49;99.08;95724.22;4334510;32;20292;-62
2022/10/08 02:37:09;;;;;;;3.37;3.23;;;;;;;12.53;99.08;95717.22;4325108;32;20208;-63
2022/10/08 02:39:38;;;;;;;1.67;1.67;;;;;;;12.62;98.74;95722.66;4348645;32;20197;-62
2022/10/08 02:42:14;;;;;;;1.67;1.60;;;;;;;12.65;98.67;95724.72;4343218;32;20208;-63
2022/10/08 02:44:45;;;;;;;2.07;2.00;;;;;;;12.59;99.00;95716.06;4350469;32;20208;-62
2022/10/08 02:47:17;;;;;;;3.00;2.90;;;;;;;12.64;98.71;95718.63;4335290;32;20186;-62
2022/10/08 02:49:56;;;;;;;2.03;1.93;;;;;;;12.67;98.56;95722.56;4334387;32;20186;-63
2022/10/08 02:52:33;;;;;;;1.80;1.70;;;;;;;12.64;98.61;95723.16;4302596;32;22578;-62
2022/10/08 02:55:02;;;;;;;2.40;2.30;;;;;;;12.69;98.29;95720.38;4331949;32;20208;-63
2022/10/08 02:57:45;;;;;;;1.80;1.80;;;;;;;12.69;98.39;95725.69;4341763;32;20242;-63
2022/10/08 03:00:12;;;;;;;2.70;2.50;;;;;;;12.73;98.16;95729.34;4327792;32;20181;-62
2022/10/08 03:02:50;;;;;;;1.67;1.57;;;;;;;12.69;98.16;95733.69;4327476;32;20223;-63
2022/10/08 03:05:19;;;;;;;3.70;2.03;;;;;;;12.68;98.37;95727.56;4328967;32;20240;-63
2022/10/08 03:07:50;;;;;;;1.93;1.63;;;;;;;12.54;98.94;95726.78;4346142;32;20221;-63
2022/10/08 03:10:18;;;;;;;1.90;1.80;;;;;;;12.64;98.50;95728.47;4325634;32;20300;-63
2022/10/08 03:12:45;;;;;;;3.47;1.73;;;;;;;12.76;97.99;95730.63;4334776;32;20248;-62
2022/10/08 03:15:14;;;;;;;2.67;2.47;;;;;;;12.73;98.19;95721.38;4345149;32;20193;-62
2022/10/08 03:17:46;;;;;;;1.27;1.27;;;;;;;12.71;98.10;95720.88;4344062;32;20185;-63
2022/10/08 03:20:14;;;;;;;1.87;1.77;;;;;;;12.70;97.97;95719.28;4342501;32;20253;-62
2022/10/08 03:22:40;;;;;;;1.43;1.43;;;;;;;12.75;98.19;95719.19;4317846;32;20205;-63
2022/10/08 03:25:10;;;;;;;1.30;1.30;;;;;;;12.73;98.05;95716.03;4343365;32;20182;-62
2022/10/08 03:27:36;;;;;;;4.73;2.33;;;;;;;12.65;98.21;95716.75;4342725;32;20189;-63
2022/10/08 03:30:04;;;;;;;2.40;2.20;;;;;;;12.63;98.55;95719.72;4346980;32;20181;-62
2022/10/08 03:32:35;;;;;;;1.00;1.00;;;;;;;12.59;99.07;95718.72;4328117;32;20222;-63
2022/10/08 03:35:01;;;;;;;1.33;1.33;;;;;;;12.65;98.86;95722.06;4294118;32;20254;-63
2022/10/08 03:37:28;;;;;;;13.90;1.70;;;;;;;12.80;98.10;95716.44;4329486;32;20199;-63
2022/10/08 03:39:54;;;;;;;1.47;1.33;;;;;;;12.84;97.79;95722.75;4294577;32;20260;-63
2022/10/08 03:42:20;;;;;;;1.57;1.57;;;;;;;12.81;97.49;95723.34;4313075;32;20181;-63
2022/10/08 03:44:50;;;;;;;2.03;1.93;;;;;;;12.86;97.51;95725.13;4341649;32;20240;-63
2022/10/08 03:47:16;;;;;;;1.60;1.60;;;;;;;12.87;97.48;95724.03;4341266;32;20221;-62
2022/10/08 03:49:43;;;;;;;2.37;2.27;;;;;;;12.70;97.74;95722.75;4315987;32;20212;-62
2022/10/08 03:52:09;;;;;;;1.43;1.30;;;;;;;12.66;97.82;95727.09;4307913;32;20186;-62
2022/10/08 03:54:36;;;;;;;1.80;1.70;;;;;;;12.68;98.01;95730.22;4324373;32;20189;-62
2022/10/08 03:57:04;;;;;;;1.40;1.40;;;;;;;12.65;98.34;95727.41;4343725;32;20200;-63
2022/10/08 03:59:32;;;;;;;1.47;1.40;;;;;;;12.77;98.21;95727.69;4345494;32;20227;-62
2022/10/08 04:02:00;;;;;;;1.50;1.50;;;;;;;12.84;97.74;95729.94;4332319;32;20236;-63
2022/10/08 04:04:26;;;;;;;1.13;1.13;;;;;;;12.73;98.10;95732.00;4332017;32;20189;-62
2022/10/08 04:06:54;;;;;;;1.00;1.00;;;;;;;12.79;97.92;95727.38;4342865;32;20208;-62
2022/10/08 04:09:20;;;;;;;0.83;0.83;;;;;;;12.81;97.50;95728.66;4332436;32;20209;-63
2022/10/08 04:11:47;;;;;;;2.47;2.27;;;;;;;12.82;97.84;95724.91;4340609;32;20312;-63
2022/10/08 04:14:14;;;;;;;1.10;1.10;;;;;;;12.70;98.34;95730.72;4347949;32;20215;-62
2022/10/08 04:16:41;;;;;;;0.80;0.80;;;;;;;12.73;98.46;95722.16;4326700;32;20197;-62
2022/10/08 04:19:06;;;;;;;1.47;1.47;;;;;;;12.83;97.91;95731.81;4327085;32;20208;-63
2022/10/08 04:21:31;;;;;;;1.37;1.37;;;;;;;12.92;97.70;95730.03;4301637;33;20186;-63
2022/10/08 04:24:01;;;;;;;1.77;1.67;;;;;;;12.91;97.48;95732.97;4329142;32;20359;-62
2022/10/08 04:26:29;;;;;;;3.53;1.90;;;;;;;12.95;97.21;95729.44;4300032;33;20190;-63
2022/10/08 04:28:56;;;;;;;1.20;1.20;;;;;;;13.03;97.13;95731.41;4335220;32;20200;-62
2022/10/08 04:31:24;;;;;;;0.73;0.73;;;;;;;13.04;97.15;95733.00;4329268;32;20208;-62
2022/10/08 04:33:51;;;;;;;1.03;1.03;;;;;;;13.02;97.08;95727.16;4333286;32;20189;-63
2022/10/08 04:36:23;;;;;;;1.70;1.50;;;;;;;13.06;96.99;95724.69;4330184;32;20201;-63
2022/10/08 04:38:49;;;;;;;2.07;1.97;;;;;;;13.06;97.04;95724.69;4330240;32;20212;-63
2022/10/08 04:41:26;;;;;;;2.87;1.67;;;;;;;13.13;96.77;95726.94;4311645;32;20247;-62
2022/10/08 04:43:57;;;;;;;2.47;2.37;;;;;;;13.18;96.39;95717.00;4348142;32;20235;-62
2022/10/08 04:46:23;;;;;;;0.83;0.83;;;;;;;13.18;96.38;95721.53;4337726;32;20279;-62
2022/10/08 04:48:53;;;;;;;1.30;1.30;;;;;;;13.24;96.30;95725.69;4316599;32;20246;-62
2022/10/08 04:51:22;;;;;;;1.37;1.33;;;;;;;13.16;96.47;95723.72;4328530;32;20185;-62
2022/10/08 04:54:14;;;;;;;1.30;1.30;;;;;;;13.04;96.84;95724.22;4316514;32;20212;-63
2022/10/08 04:56:39;;;;;;;1.50;1.50;;;;;;;13.20;96.51;95724.69;4324477;32;20190;-63
2022/10/08 04:59:05;;;;;;;1.60;1.50;;;;;;;13.15;96.54;95735.41;4329115;32;20185;-63
2022/10/08 05:01:32;;;;;;;1.43;1.43;;;;;;;13.19;96.49;95731.13;4347223;32;20181;-63
2022/10/08 05:04:00;;;;;;;1.53;1.53;;;;;;;13.05;97.10;95733.78;4313744;32;20200;-63
2022/10/08 05:06:28;;;;;;;2.93;1.10;;;;;;;13.18;96.63;95742.84;4344310;32;20268;-62
2022/10/08 05:09:10;;;;;;;1.17;1.17;;;;;;;13.04;97.08;95737.53;4341978;32;20201;-62
2022/10/08 05:11:35;;;;;;;1.80;1.70;;;;;;;13.05;97.26;95742.56;4322905;32;20181;-63
2022/10/08 05:14:01;;;;;;;4.87;1.10;;;;;;;13.01;97.41;95741.56;4351101;32;20199;-62
2022/10/08 05:16:29;;;;;;;1.13;1.13;;;;;;;13.13;97.22;95750.91;4349775;32;20284;-62
2022/10/08 05:18:55;;;;;;;1.77;1.73;;;;;;;13.09;97.30;95746.19;4354633;32;20196;-62
2022/10/08 05:21:25;;;;;;;1.83;1.73;;;;;;;13.09;97.05;95746.19;4325819;32;20197;-62
2022/10/08 05:24:06;;;;;;;1.83;1.73;;;;;;;13.17;96.81;95747.41;4321399;32;20192;-62
2022/10/08 05:26:54;;;;;;;0.83;0.83;;;;;;;13.19;96.64;95745.22;4321709;32;20185;-63
2022/10/08 05:29:21;;;;;;;1.40;1.20;;;;;;;13.26;96.14;95752.81;4342005;32;20186;-63
2022/10/08 05:31:49;;;;;;;2.00;1.90;;;;;;;13.32;95.86;95747.06;4334825;32;20196;-63
2022/10/08 05:34:17;;;;;;;1.40;1.30;;;;;;;13.35;95.71;95751.00;4337658;32;20231;-63
2022/10/08 05:36:44;;;;;;;1.07;1.07;;;;;;;13.37;95.84;95746.97;4325905;32;20192;-63
2022/10/08 05:39:11;;;;;;;1.97;1.87;;;;;;;13.33;95.92;95753.19;4344696;32;20227;-62
2022/10/08 05:41:37;;;;;;;0.80;0.80;;;;;;;13.32;95.92;95760.38;4346241;32;20188;-63
2022/10/08 05:44:14;;;;;;;0.87;0.87;;;;;;;13.39;95.81;95754.66;4325705;32;20189;-63
2022/10/08 05:46:41;;;;;;;1.60;1.50;;;;;;;13.26;96.13;95760.81;4337515;32;20200;-62
2022/10/08 05:49:16;;;;;;;1.03;1.03;;;;;;;13.04;97.04;95759.62;4344626;32;20248;-63
2022/10/08 05:51:43;;;;;;;1.07;1.07;;;;;;;13.18;96.81;95753.50;4334839;32;20184;-63
2022/10/08 05:54:10;;;;;;;1.10;1.10;;;;;;;13.09;97.22;95758.75;4344054;32;20231;-62
2022/10/08 05:56:38;;;;;;;1.00;1.00;;;;;;;13.12;97.05;95757.31;4335331;32;20265;-63
2022/10/08 05:59:05;;;;;;;1.47;1.47;;;;;;;13.16;96.88;95763.66;4343430;32;20204;-62
2022/10/08 06:01:32;;;;;;;1.47;1.40;;;;;;;13.26;96.20;95760.81;4324184;32;20185;-62
2022/10/08 06:04:04;;;;;;;1.47;1.40;;;;;;;13.24;96.32;95766.44;4323996;32;20193;-62
2022/10/08 06:06:34;;;;;;;1.10;1.10;;;;;;;13.30;96.38;95767.88;4295611;32;20261;-63
2022/10/08 06:09:01;;;;;;;1.37;1.37;;;;;;;13.24;96.59;95774.44;4300683;32;20237;-62
2022/10/08 06:11:30;;;;;;;2.03;1.93;;;;;;;13.26;96.61;95776.78;4322485;32;20335;-62
2022/10/08 06:13:59;;;;;;;6.73;1.90;;;;;;;13.26;96.53;95777.59;4305787;32;20263;-62
2022/10/08 06:16:30;;;;;;;1.80;1.70;;;;;;;13.28;96.51;95785.28;4309886;33;20194;-62
2022/10/08 06:18:57;;;;;;;2.23;1.77;;;;;;;13.24;96.46;95786.97;4321624;32;20206;-62
2022/10/08 06:21:25;;;;;;;1.27;1.27;;;;;;;13.34;96.21;95784.06;4310433;32;20204;-63
2022/10/08 06:24:13;;;;;;;2.17;1.53;;;;;;;13.35;96.38;95790.97;4314610;32;20232;-63
2022/10/08 06:26:42;;;;;;;0.93;0.93;;;;;;;13.35;96.18;95789.09;4311537;32;20193;-63
2022/10/08 06:29:16;;;;;;;1.57;1.37;;;;;;;13.46;96.40;95797.69;4327554;32;20269;-62
2022/10/08 06:31:48;;;;;;;0.90;0.90;;;;;;;13.57;95.91;95791.03;4330126;32;20181;-62
2022/10/08 06:34:17;;;;;;;1.60;1.60;;;;;;;13.53;96.01;95791.94;4330568;32;20202;-62
2022/10/08 06:36:44;;;;;;;2.33;1.57;;;;;;;13.59;96.48;95786.19;4335822;32;20189;-63
2022/10/08 06:39:13;;;;;;;1.70;1.60;;;;;;;13.50;96.97;95800.53;4306629;32;20208;-63
2022/10/08 06:41:43;;;;;;;2.00;1.53;;;;;;;13.55;97.18;95798.53;4327510;32;20189;-63
2022/10/08 06:44:13;;;;;;;1.77;1.70;;;;;;;13.65;97.22;95797.53;4324059;32;20208;-63
2022/10/08 06:46:45;;;;;;;1.10;1.10;;;;;;;13.74;97.03;95798.38;4263112;33;20241;-63
2022/10/08 06:49:12;;;;;;;0.83;0.83;;;;;;;13.74;96.98;95804.50;4318996;32;20209;-63
2022/10/08 06:51:43;;;;;;;1.43;1.37;;;;;;;13.70;97.08;95802.78;4312906;32;20204;-63
2022/10/08 06:54:09;;;;;;;1.63;1.57;;;;;;;13.83;96.95;95806.47;4317602;32;20208;-63
2022/10/08 06:56:36;;;;;;;1.73;1.63;;;;;;;13.88;97.15;95809.81;4330155;32;20204;-63
2022/10/08 06:59:08;;;;;;;1.80;1.70;;;;;;;13.98;96.75;95808.78;4327347;32;20190;-63
2022/10/08 07:01:35;;;;;;;0.93;0.93;;;;;;;14.00;96.72;95812.72;4330601;32;20192;-63
2022/10/08 07:04:03;;;;;;;1.70;1.70;;;;;;;14.13;96.44;95813.00;4348330;32;20269;-63
2022/10/08 07:06:31;;;;;;;2.93;2.07;;;;;;;14.18;96.17;95818.19;4323367;32;20186;-63
2022/10/08 07:09:00;;;;;;;11.13;1.83;;;;;;;14.27;96.28;95817.16;4340592;32;20223;-63
2022/10/08 07:11:26;;;;;;;1.60;1.43;;;;;;;14.33;95.90;95826.63;4320500;32;20209;-63
2022/10/08 07:13:54;;;;;;;0.87;0.87;;;;;;;14.32;95.71;95827.72;4334182;32;20189;-63
2022/10/08 07:16:23;;;;;;;1.40;1.40;;;;;;;14.38;95.82;95831.03;4356929;32;20185;-62
2022/10/08 07:18:52;;;;;;;1.57;1.57;;;;;;;14.42;95.58;95830.16;4313828;32;20189;-63
2022/10/08 07:21:27;;;;;;;3.50;1.97;;;;;;;14.42;95.27;95832.81;4346732;32;20189;-62
2022/10/08 07:23:55;;;;;;;1.13;1.13;;;;;;;14.48;95.28;95838.06;4345536;32;20276;-62
2022/10/08 07:26:31;;;;;;;1.87;1.77;;;;;;;14.53;95.15;95845.94;4338863;32;20248;-62
2022/10/08 07:29:03;;;;;;;1.33;1.33;;;;;;;14.57;95.38;95844.22;4325446;32;20290;-63
2022/10/08 07:31:33;;;;;;;1.47;1.37;;;;;;;14.59;95.26;95850.84;4323967;32;20201;-63
2022/10/08 07:34:00;;;;;;;1.23;1.23;;;;;;;14.60;95.51;95856.97;4262420;33;20241;-63
2022/10/08 07:36:48;;;;;;;3.10;2.90;;;;;;;14.66;95.27;95853.88;4331316;32;20186;-63
2022/10/08 07:39:21;;;;;;;2.50;2.40;;;;;;;14.72;95.29;95851.88;4352745;32;20189;-63
2022/10/08 07:41:48;;;;;;;1.77;1.67;;;;;;;14.81;95.27;95863.37;4343240;32;20244;-62
2022/10/08 07:44:15;;;;;;;2.30;2.10;;;;;;;14.85;95.28;95850.97;4337943;32;20193;-63
2022/10/08 07:46:52;;;;;;;2.90;2.13;;;;;;;14.91;95.18;95855.09;4345573;32;20189;-62
2022/10/08 07:49:19;;;;;;;1.93;1.83;;;;;;;14.94;95.19;95861.72;4328944;32;20205;-62
2022/10/08 07:51:47;;;;;;;1.00;1.00;;;;;;;15.04;95.08;95862.22;4331814;32;20238;-62
2022/10/08 07:54:15;;;;;;;1.90;1.17;;;;;;;15.12;95.04;95858.81;4304879;33;20198;-62
2022/10/08 07:56:40;;;;;;;1.37;1.27;;;;;;;15.13;95.40;95860.41;4320090;32;20192;-62
2022/10/08 07:59:07;;;;;;;2.13;2.03;;;;;;;15.25;95.23;95861.69;4339032;32;20211;-62
2022/10/08 08:01:34;;;;;;;2.67;2.50;;;;;;;15.31;95.03;95849.75;4326104;32;20258;-63
2022/10/08 08:04:04;;;;;;;1.80;1.70;;;;;;;15.38;95.03;95858.12;4334723;32;20236;-63
2022/10/08 08:06:36;;;;;;;2.23;2.07;;;;;;;15.47;94.62;95850.91;4323254;32;20197;-63
2022/10/08 08:09:03;;;;;;;1.67;1.57;;;;;;;15.54;94.42;95858.47;4333495;32;20217;-63
2022/10/08 08:11:29;;;;;;;1.27;1.27;;;;;;;15.61;94.34;95858.81;4342277;32;20177;-63
2022/10/08 08:13:55;;;;;;;1.20;1.20;;;;;;;15.68;94.28;95864.50;4328035;32;20201;-63
2022/10/08 08:16:26;;;;;;;2.30;2.10;;;;;;;15.73;93.97;95865.16;4340801;32;20204;-63
2022/10/08 08:18:57;;;;;;;11.43;9.87;;;;;;;15.74;93.86;95869.41;4328189;32;20189;-53
2022/10/08 08:21:35;;;;;;;16.20;7.97;;;;;;;16.43;100.00;95863.28;4312845;32;20209;-55
2022/10/08 08:24:05;;;;;;;5.33;4.93;;;;;;;16.73;99.14;95861.53;4341581;32;20205;-54
2022/10/08 08:26:37;;;;;;;6.00;5.57;;;;;;;16.97;95.96;95856.44;4347097;32;20185;-55
2022/10/08 08:29:14;;;;;;;6.97;4.27;;;;;;;17.27;92.88;95865.28;4346210;32;20181;-55
2022/10/08 08:31:42;;;;;;;4.07;3.87;;;;;;;17.44;90.01;95869.81;4346262;32;20189;-54
2022/10/08 08:34:21;;;;;;;3.17;2.90;;;;;;;17.60;88.99;95860.09;4307810;32;20189;-51
2022/10/08 08:36:49;;;;;;;2.30;2.07;;;;;;;17.68;87.70;95864.63;4336767;32;20246;-52
2022/10/08 08:39:22;;;;;;;1.20;1.20;;;;;;;17.81;86.73;95863.63;4333869;32;20199;-54
2022/10/08 08:42:09;;;;;;;8.23;2.30;;;;;;;17.82;86.00;95865.19;4344838;32;20240;-53
2022/10/08 08:44:40;;;;;;;1.17;1.17;;;;;;;17.90;85.64;95863.56;4335143;32;20201;-52
2022/10/08 08:47:32;;;;;;;2.30;1.20;;;;;;;17.91;84.95;95862.44;4350189;32;20193;-53
2022/10/08 08:50:20;;;;;;;1.90;1.53;;;;;;;17.95;84.65;95868.75;4299219;32;20208;-53
2022/10/08 08:52:48;;;;;;;1.67;1.43;;;;;;;17.95;83.54;95868.75;4294452;32;20242;-52
2022/10/08 08:55:18;;;;;;;0.90;0.90;;;;;;;17.98;83.91;95870.00;4333355;32;20189;-55
2022/10/08 08:58:09;;;;;;;0.97;0.93;;;;;;;18.00;83.51;95867.75;4326485;32;20215;-53
2022/10/08 09:00:45;;;;;;;2.33;1.83;;;;;;;17.98;82.95;95870.00;4313842;32;20237;-53
2022/10/08 09:03:33;;;;;;;1.17;1.17;;;;;;;18.04;82.83;95868.69;4265516;33;20189;-51
2022/10/08 09:06:13;;;;;;;1.73;1.63;;;;;;;18.04;82.99;95866.00;4364488;32;20244;-52
2022/10/08 09:09:06;;;;;;;1.37;1.37;;;;;;;18.13;82.63;95869.41;4342938;32;20204;-53
2022/10/08 09:11:38;;;;;;;1.57;1.53;;;;;;;18.17;81.39;95871.09;4341365;32;20204;-53
2022/10/08 09:14:10;;;;;;;8.03;1.63;;;;;;;18.49;80.53;95869.59;4332747;32;20189;-50
2022/10/08 09:16:37;;;;;;;1.23;1.23;;;;;;;18.62;79.47;95875.03;4319319;32;20279;-63
2022/10/08 09:19:09;;;;;;;1.27;1.27;;;;;;;18.23;79.32;95882.44;4326031;32;20215;-63
2022/10/08 09:21:56;;;;;;;2.23;2.13;;;;;;;17.82;81.13;95878.63;4333994;32;20275;-63
2022/10/08 09:24:28;;;;;;;1.23;1.23;;;;;;;17.55;82.78;95871.00;4316114;32;20208;-63
2022/10/08 09:26:58;;;;;;;1.30;1.30;;;;;;;17.36;84.07;95878.69;4358222;32;20211;-63
2022/10/08 09:29:33;;;;;;;1.50;1.37;;;;;;;17.36;84.13;95879.47;4357203;32;20204;-63
2022/10/08 09:32:00;;;;;;;1.73;1.63;;;;;;;17.32;84.41;95875.06;4328149;32;20259;-63
2022/10/08 09:34:26;;;;;;;3.90;1.37;;;;;;;17.22;84.89;95880.78;4347778;32;20325;-63
2022/10/08 09:37:01;;;;;;;1.27;1.27;;;;;;;17.30;85.02;95883.44;4356929;32;20280;-63
2022/10/08 09:39:31;;;;;;;1.23;1.23;;;;;;;17.35;84.81;95875.22;4353338;32;20233;-63
2022/10/08 09:42:06;;;;;;;2.20;1.57;;;;;;;17.33;85.14;95873.94;4336396;32;20504;-63
2022/10/08 09:45:02;;;;;;;1.77;1.67;;;;;;;17.41;84.87;95873.12;4344411;32;20206;-63
2022/10/08 09:47:29;;;;;;;1.63;1.33;;;;;;;17.43;84.94;95874.38;4346287;32;20198;-62
2022/10/08 09:50:30;;;;;;;2.30;2.20;;;;;;;17.46;84.70;95875.63;4324305;32;20276;-62
2022/10/08 09:52:59;;;;;;;1.60;1.50;;;;;;;17.57;84.71;95866.09;4272214;33;20187;-63
2022/10/08 09:55:30;;;;;;;0.90;0.90;;;;;;;17.61;84.33;95859.00;4231602;33;20298;-63
2022/10/08 09:58:02;;;;;;;1.83;1.73;;;;;;;17.61;84.16;95864.34;4256462;33;20309;-64
2022/10/08 10:00:35;;;;;;;1.43;1.37;;;;;;;17.54;83.44;95864.06;4258898;32;20212;-63
2022/10/08 10:03:15;;;;;;;1.70;1.60;;;;;;;17.71;83.60;95864.00;4306254;32;20272;-63
2022/10/08 10:05:46;;;;;;;0.83;0.83;;;;;;;17.81;82.29;95865.53;4342052;32;20216;-64
2022/10/08 10:09:02;;;;;;;2.20;2.00;;;;;;;17.89;81.77;95874.62;4330161;32;20231;-66
2022/10/08 10:11:36;;;;;;;5.07;1.33;;;;;;;17.93;82.03;95870.19;4262137;33;20186;-63
2022/10/08 10:14:14;;;;;;;1.87;1.77;;;;;;;17.99;80.84;95877.72;4237715;33;20280;-63
2022/10/08 10:16:47;;;;;;;1.53;1.43;;;;;;;18.08;80.49;95870.37;4321265;32;20195;-63
2022/10/08 10:19:28;;;;;;;1.07;1.03;;;;;;;18.03;80.98;95869.81;4346756;32;20200;-64
2022/10/08 10:22:06;;;;;;;1.77;1.67;;;;;;;18.04;80.07;95868.69;4302140;32;20211;-63
2022/10/08 10:25:01;;;;;;;1.60;1.60;;;;;;;18.01;79.97;95875.50;4294321;33;20220;-63
2022/10/08 10:27:39;;;;;;;0.87;0.87;;;;;;;17.93;79.67;95878.22;4318201;32;20268;-63
2022/10/08 10:30:23;;;;;;;1.37;1.37;;;;;;;17.89;79.52;95869.25;4357766;32;20193;-63
2022/10/08 10:33:01;;;;;;;1.87;1.77;;;;;;;17.87;81.18;95869.59;4327378;32;20270;-63
2022/10/08 10:35:30;;;;;;;6.77;1.57;;;;;;;17.90;81.30;95868.94;4338108;32;20313;-62
2022/10/08 10:38:19;;;;;;;3.60;1.57;;;;;;;17.83;80.13;95866.78;4343693;32;20290;-63
2022/10/08 10:41:13;;;;;;;1.33;1.27;;;;;;;17.78;81.38;95868.84;4363751;32;20243;-63
2022/10/08 10:44:19;;;;;;;1.63;1.50;;;;;;;17.84;81.78;95876.41;4335697;32;20195;-63
2022/10/08 10:46:55;;;;;;;2.60;1.43;;;;;;;17.84;81.95;95867.56;4320006;32;20189;-63
2022/10/08 10:49:28;;;;;;;4.60;1.53;;;;;;;17.80;81.39;95858.59;4326649;32;20195;-62
2022/10/08 10:52:32;;;;;;;2.13;2.03;;;;;;;17.82;80.48;95865.19;4340759;32;20197;-63
2022/10/08 10:55:19;;;;;;;1.93;1.70;;;;;;;17.74;80.97;95863.34;4353420;32;20327;-62
2022/10/08 10:58:03;;;;;;;1.40;1.40;;;;;;;17.71;81.67;95866.69;4360856;32;20197;-63
2022/10/08 11:00:57;;;;;;;1.70;1.60;;;;;;;17.60;82.28;95865.47;4347816;32;20222;-63
2022/10/08 11:03:41;;;;;;;1.87;1.77;;;;;;;17.52;82.24;95869.75;4327024;32;20267;-62
2022/10/08 11:06:44;;;;;;;1.87;1.77;;;;;;;17.49;81.82;95861.56;4323262;32;20190;-64
2022/10/08 11:09:47;;;;;;;1.50;1.47;;;;;;;17.54;81.37;95858.69;4320773;32;20207;-63
2022/10/08 11:12:37;;;;;;;3.27;1.60;;;;;;;17.47;81.43;95858.41;4306842;32;20176;-63
2022/10/08 11:15:22;;;;;;;5.50;2.30;;;;;;;17.35;82.80;95858.31;4333530;32;20193;-63
2022/10/08 11:18:26;;;;;;;2.20;1.80;;;;;;;17.45;84.09;95857.97;4333970;32;20228;-63
2022/10/08 11:21:30;;;;;;;3.13;1.97;;;;;;;17.39;82.44;95853.91;4339215;32;20260;-63
2022/10/08 11:24:24;;;;;;;1.00;1.00;;;;;;;17.31;84.20;95857.41;4318463;32;20314;-63
2022/10/08 11:27:17;;;;;;;1.70;1.67;;;;;;;17.25;84.57;95862.13;4354711;32;20198;-62
2022/10/08 11:29:56;;;;;;;1.37;1.37;;;;;;;17.41;84.41;95862.41;4361598;32;20199;-63
2022/10/08 11:32:23;;;;;;;2.03;1.77;;;;;;;17.42;82.32;95859.41;4366789;32;20255;-62
2022/10/08 11:35:26;;;;;;;1.90;1.63;;;;;;;17.45;83.19;95852.63;4332401;32;20188;-63
2022/10/08 11:38:05;;;;;;;1.40;1.30;;;;;;;17.38;83.22;95855.78;4332942;32;20199;-62
2022/10/08 11:41:15;;;;;;;6.70;1.77;;;;;;;17.24;84.05;95851.75;4353402;32;20181;-62
2022/10/08 11:44:10;;;;;;;2.47;2.37;;;;;;;17.44;83.17;95851.81;4304389;32;20277;-62
2022/10/08 11:46:37;;;;;;;1.73;1.63;;;;;;;17.30;83.69;95853.13;4356209;32;20227;-63
2022/10/08 11:49:31;;;;;;;6.70;3.93;;;;;;;17.30;84.38;95850.47;4360095;32;20193;-62
2022/10/08 11:52:12;;;;;;;11.07;2.33;;;;;;;17.15;84.83;95847.22;4324542;32;20217;-62
2022/10/08 11:54:47;;;;;;;1.47;1.47;;;;;;;17.20;84.23;95851.62;4338577;32;20197;-64
2022/10/08 11:57:34;;;;;;;1.63;1.63;;;;;;;17.12;85.62;95850.53;4332700;32;20223;-63
2022/10/08 12:00:04;;;;;;;1.50;1.50;;;;;;;17.05;85.13;95854.81;4301150;32;20224;-63
2022/10/08 12:02:44;;;;;;;2.60;2.40;;;;;;;17.11;85.39;95846.28;4339225;32;20210;-63
2022/10/08 12:05:51;;;;;;;1.93;1.23;;;;;;;17.12;84.80;95847.84;4357112;32;20181;-62
2022/10/08 12:08:53;;;;;;;2.43;1.47;;;;;;;17.08;84.19;95846.91;4337642;32;20295;-62
2022/10/08 12:11:45;;;;;;;8.80;2.37;;;;;;;17.24;83.75;95839.13;4319489;33;20181;-62
2022/10/08 12:14:23;;;;;;;2.23;1.97;;;;;;;17.15;84.55;95839.16;4347934;32;20249;-63